createdAt,value
2022-10-02T00:00:06.855Z,47.60
2022-10-02T00:02:39.473Z,47.60
2022-10-02T00:05:22.939Z,47.60
2022-10-02T00:08:06.574Z,47.60
2022-10-02T00:10:50.820Z,47.50
2022-10-02T00:13:27.489Z,47.50
2022-10-02T00:15:55.558Z,47.50
2022-10-02T00:18:32.984Z,47.40
2022-10-02T00:21:06.279Z,47.40
2022-10-02T00:23:46.146Z,47.40
2022-10-02T00:26:19.524Z,47.40
2022-10-02T00:29:04.768Z,47.30
2022-10-02T00:31:41.353Z,47.30
2022-10-02T00:34:20.442Z,47.30
2022-10-02T00:36:58.804Z,47.30
2022-10-02T00:39:34.560Z,47.20
2022-10-02T00:42:17.472Z,47.20
2022-10-02T00:45:01.369Z,47.40
2022-10-02T00:47:49.144Z,47.20
2022-10-02T00:50:23.658Z,47.20
2022-10-02T00:52:50.360Z,47.20
2022-10-02T00:55:37.632Z,47.20
2022-10-02T00:58:22.807Z,47.20
2022-10-02T01:01:12.799Z,47.90
2022-10-02T01:03:46.864Z,47.30
2022-10-02T01:06:13.825Z,47.20
2022-10-02T01:08:41.095Z,47.20
2022-10-02T01:11:08.689Z,47.30
2022-10-02T01:13:35.818Z,47.40
2022-10-02T01:16:03.380Z,47.40
2022-10-02T01:18:31.784Z,47.50
2022-10-02T01:21:26.639Z,47.50
2022-10-02T01:24:26.265Z,47.50
2022-10-02T01:26:53.109Z,47.60
2022-10-02T01:29:19.933Z,47.60
2022-10-02T01:31:46.739Z,47.60
2022-10-02T01:34:13.884Z,47.60
2022-10-02T01:36:40.812Z,47.60
2022-10-02T01:39:07.720Z,47.60
2022-10-02T01:41:41.536Z,47.60
2022-10-02T01:44:08.384Z,47.60
2022-10-02T01:46:38.596Z,47.70
2022-10-02T01:49:34.067Z,47.60
2022-10-02T01:52:34.877Z,47.60
2022-10-02T01:55:40.948Z,47.60
2022-10-02T01:58:33.709Z,47.70
2022-10-02T02:01:19.760Z,47.70
2022-10-02T02:04:23.035Z,47.70
2022-10-02T02:06:58.892Z,47.70
2022-10-02T02:09:42.601Z,47.70
2022-10-02T02:12:19.035Z,47.80
2022-10-02T02:14:51.705Z,47.80
2022-10-02T02:17:29.173Z,48.20
2022-10-02T02:20:02.119Z,47.80
2022-10-02T02:22:36.656Z,47.90
2022-10-02T02:25:18.283Z,47.90
2022-10-02T02:27:53.756Z,47.90
2022-10-02T02:30:21.796Z,48.00
2022-10-02T02:33:04.437Z,48.00
2022-10-02T02:35:37.827Z,48.00
2022-10-02T02:38:13.768Z,48.10
2022-10-02T02:40:43.737Z,48.80
2022-10-02T02:43:20.035Z,48.10
2022-10-02T02:45:59.023Z,48.10
2022-10-02T02:48:30.532Z,48.10
2022-10-02T02:51:01.348Z,48.10
2022-10-02T02:53:54.101Z,48.20
2022-10-02T02:56:21.735Z,48.20
2022-10-02T02:59:09.855Z,48.20
2022-10-02T03:01:37.270Z,48.20
2022-10-02T03:04:04.388Z,48.20
2022-10-02T03:06:38.821Z,48.20
2022-10-02T03:09:11.218Z,48.30
2022-10-02T03:12:05.798Z,48.30
2022-10-02T03:14:45.661Z,48.30
2022-10-02T03:17:39.654Z,48.40
2022-10-02T03:20:11.884Z,48.40
2022-10-02T03:22:41.651Z,48.40
2022-10-02T03:25:21.510Z,48.50
2022-10-02T03:27:59.440Z,48.50
2022-10-02T03:30:27.487Z,48.60
2022-10-02T03:32:56.271Z,48.70
2022-10-02T03:35:25.181Z,48.70
2022-10-02T03:37:58.831Z,48.80
2022-10-02T03:40:26.646Z,48.80
2022-10-02T03:42:58.200Z,48.90
2022-10-02T03:45:49.446Z,48.90
2022-10-02T03:48:13.973Z,49.00
2022-10-02T03:50:40.839Z,49.00
2022-10-02T03:53:14.669Z,49.10
2022-10-02T03:55:47.064Z,49.20
2022-10-02T03:58:17.185Z,49.20
2022-10-02T04:01:13.221Z,49.20
2022-10-02T04:03:48.485Z,49.30
2022-10-02T04:06:26.506Z,49.40
2022-10-02T04:09:28.923Z,49.50
2022-10-02T04:12:19.195Z,49.50
2022-10-02T04:15:08.875Z,49.50
2022-10-02T04:17:58.794Z,49.60
2022-10-02T04:20:46.517Z,49.70
2022-10-02T04:23:28.323Z,49.60
2022-10-02T04:26:13.600Z,49.60
2022-10-02T04:28:48.043Z,49.60
2022-10-02T04:31:15.205Z,49.50
2022-10-02T04:33:42.135Z,49.40
2022-10-02T04:36:17.880Z,49.30
2022-10-02T04:38:54.426Z,50.00
2022-10-02T04:41:54.775Z,49.20
2022-10-02T04:44:45.253Z,49.20
2022-10-02T04:47:43.217Z,49.10
2022-10-02T04:50:25.290Z,49.10
2022-10-02T04:53:12.518Z,49.10
2022-10-02T04:56:00.817Z,49.10
2022-10-02T04:58:47.726Z,49.20
2022-10-02T05:01:52.157Z,49.30
2022-10-02T05:04:42.017Z,49.30
2022-10-02T05:07:17.531Z,49.30
2022-10-02T05:09:50.196Z,49.30
2022-10-02T05:12:16.898Z,49.20
2022-10-02T05:15:23.484Z,49.00
2022-10-02T05:18:20.020Z,48.90
2022-10-02T05:21:09.559Z,48.80
2022-10-02T05:23:42.936Z,48.70
2022-10-02T05:26:21.813Z,48.60
2022-10-02T05:29:09.582Z,48.70
2022-10-02T05:32:14.425Z,48.70
2022-10-02T05:34:55.983Z,48.80
2022-10-02T05:37:52.301Z,48.90
2022-10-02T05:40:36.456Z,49.00
2022-10-02T05:43:28.559Z,49.20
2022-10-02T05:45:59.823Z,49.30
2022-10-02T05:48:39.573Z,49.20
2022-10-02T05:51:20.881Z,49.20
2022-10-02T05:53:57.396Z,49.20
2022-10-02T05:56:32.946Z,49.20
2022-10-02T05:59:13.936Z,49.10
2022-10-02T06:01:44.709Z,49.00
2022-10-02T06:04:29.084Z,49.00
2022-10-02T06:07:01.137Z,48.90
2022-10-02T06:09:50.347Z,48.90
2022-10-02T06:12:17.033Z,48.90
2022-10-02T06:14:50.984Z,48.90
2022-10-02T06:17:25.934Z,49.00
2022-10-02T06:20:12.581Z,49.80
2022-10-02T06:22:44.207Z,49.20
2022-10-02T06:25:24.905Z,49.30
2022-10-02T06:28:00.344Z,49.40
2022-10-02T06:30:31.951Z,49.40
2022-10-02T06:33:06.779Z,49.50
2022-10-02T06:35:45.516Z,49.50
2022-10-02T06:38:39.702Z,49.40
2022-10-02T06:41:35.554Z,49.40
2022-10-02T06:44:15.260Z,50.10
2022-10-02T06:46:53.849Z,49.40
2022-10-02T06:49:39.478Z,49.30
2022-10-02T06:52:06.448Z,49.40
2022-10-02T06:55:05.015Z,49.10
2022-10-02T06:57:48.428Z,49.10
2022-10-02T07:00:21.292Z,49.10
2022-10-02T07:03:16.995Z,49.10
2022-10-02T07:06:00.269Z,49.20
2022-10-02T07:08:54.027Z,49.40
2022-10-02T07:11:40.898Z,49.50
2022-10-02T07:14:28.363Z,49.70
2022-10-02T07:17:02.164Z,49.70
2022-10-02T07:19:43.398Z,49.70
2022-10-02T07:22:44.715Z,49.60
2022-10-02T07:25:39.835Z,49.60
2022-10-02T07:28:27.706Z,49.50
2022-10-02T07:31:05.130Z,49.50
2022-10-02T07:33:37.816Z,49.40
2022-10-02T07:36:04.543Z,49.30
2022-10-02T07:38:45.466Z,49.20
2022-10-02T07:41:24.131Z,49.20
2022-10-02T07:44:02.799Z,49.30
2022-10-02T07:46:58.847Z,49.40
2022-10-02T07:49:38.187Z,49.50
2022-10-02T07:52:29.298Z,49.70
2022-10-02T07:55:08.784Z,49.70
2022-10-02T07:58:09.650Z,49.80
2022-10-02T08:00:45.808Z,49.90
2022-10-02T08:03:20.045Z,49.80
2022-10-02T08:05:53.005Z,49.80
2022-10-02T08:08:30.443Z,49.70
2022-10-02T08:11:06.747Z,49.70
2022-10-02T08:13:39.831Z,49.90
2022-10-02T08:16:08.798Z,49.70
2022-10-02T08:18:39.732Z,49.70
2022-10-02T08:21:20.281Z,49.70
2022-10-02T08:23:57.115Z,49.80
2022-10-02T08:26:35.794Z,49.90
2022-10-02T08:29:26.838Z,49.90
2022-10-02T08:31:54.337Z,50.10
2022-10-02T08:34:23.663Z,50.20
2022-10-02T08:37:16.372Z,50.30
2022-10-02T08:39:57.541Z,50.30
2022-10-02T08:42:47.341Z,50.30
2022-10-02T08:45:47.427Z,51.00
2022-10-02T08:48:32.850Z,50.30
2022-10-02T08:51:08.584Z,50.20
2022-10-02T08:53:40.986Z,50.20
2022-10-02T08:56:31.511Z,50.20
2022-10-02T08:59:18.954Z,50.10
2022-10-02T09:02:19.750Z,50.10
2022-10-02T09:05:09.569Z,50.00
2022-10-02T09:07:55.148Z,50.10
2022-10-02T09:10:59.419Z,49.90
2022-10-02T09:14:02.634Z,49.90
2022-10-02T09:17:02.798Z,49.80
2022-10-02T09:20:03.588Z,49.80
2022-10-02T09:22:59.263Z,49.70
2022-10-02T09:25:38.776Z,49.70
2022-10-02T09:28:36.723Z,49.60
2022-10-02T09:31:04.371Z,49.60
2022-10-02T09:33:59.879Z,49.70
2022-10-02T09:36:41.729Z,49.80
2022-10-02T09:39:46.089Z,49.90
2022-10-02T09:42:27.970Z,50.00
2022-10-02T09:45:22.766Z,50.10
2022-10-02T09:48:30.318Z,50.20
2022-10-02T09:51:09.344Z,50.30
2022-10-02T09:54:12.818Z,50.30
2022-10-02T09:57:00.403Z,50.50
2022-10-02T10:00:03.043Z,50.60
2022-10-02T10:02:45.519Z,50.60
2022-10-02T10:05:38.491Z,50.60
2022-10-02T10:08:24.132Z,50.60
2022-10-02T10:10:55.841Z,50.70
2022-10-02T10:13:41.358Z,50.80
2022-10-02T10:16:32.948Z,50.90
2022-10-02T10:19:31.294Z,50.90
2022-10-02T10:22:17.384Z,51.00
2022-10-02T10:25:01.910Z,51.10
2022-10-02T10:27:47.310Z,51.20
2022-10-02T10:30:14.742Z,51.20
2022-10-02T10:33:11.725Z,51.30
2022-10-02T10:35:41.473Z,51.30
2022-10-02T10:38:46.028Z,51.30
2022-10-02T10:41:37.863Z,51.40
2022-10-02T10:44:46.274Z,51.60
2022-10-02T10:47:29.697Z,52.30
2022-10-02T10:50:03.643Z,51.70
2022-10-02T10:53:04.063Z,51.80
2022-10-02T10:56:02.303Z,51.90
2022-10-02T10:58:51.096Z,52.00
2022-10-02T11:01:18.938Z,52.00
2022-10-02T11:04:27.282Z,52.10
2022-10-02T11:07:16.943Z,52.20
2022-10-02T11:10:15.909Z,52.30
2022-10-02T11:13:01.696Z,52.40
2022-10-02T11:15:48.051Z,52.40
2022-10-02T11:18:41.300Z,52.30
2022-10-02T11:21:14.107Z,52.20
2022-10-02T11:23:49.695Z,52.10
2022-10-02T11:26:43.914Z,52.10
2022-10-02T11:29:47.514Z,52.10
2022-10-02T11:32:53.445Z,52.10
2022-10-02T11:35:29.789Z,52.10
2022-10-02T11:38:18.841Z,52.20
2022-10-02T11:41:07.441Z,52.20
2022-10-02T11:43:59.715Z,52.20
2022-10-02T11:46:57.933Z,52.30
2022-10-02T11:49:46.391Z,52.40
2022-10-02T11:52:48.536Z,52.40
2022-10-02T11:55:34.175Z,52.50
2022-10-02T11:58:44.100Z,52.50
2022-10-02T12:01:10.809Z,52.40
2022-10-02T12:03:49.382Z,52.30
2022-10-02T12:06:36.508Z,52.10
2022-10-02T12:09:24.624Z,52.10
2022-10-02T12:12:06.718Z,52.00
2022-10-02T12:15:02.698Z,51.90
2022-10-02T12:17:53.260Z,52.60
2022-10-02T12:21:03.580Z,51.80
2022-10-02T12:24:16.667Z,51.80
2022-10-02T12:27:09.575Z,51.80
2022-10-02T12:29:40.983Z,51.90
2022-10-02T12:32:49.730Z,51.90
2022-10-02T12:35:19.747Z,52.00
2022-10-02T12:38:04.568Z,52.50
2022-10-02T12:40:32.784Z,52.00
2022-10-02T12:43:05.585Z,52.00
2022-10-02T12:46:05.586Z,52.00
2022-10-02T12:48:51.044Z,52.00
2022-10-02T12:51:59.162Z,52.00
2022-10-02T12:54:29.896Z,52.00
2022-10-02T12:57:41.848Z,52.00
2022-10-02T13:00:16.239Z,52.10
2022-10-02T13:03:18.548Z,52.00
2022-10-02T13:06:13.235Z,52.00
2022-10-02T13:09:03.454Z,52.00
2022-10-02T13:12:05.378Z,51.90
2022-10-02T13:14:49.781Z,51.90
2022-10-02T13:17:28.708Z,51.80
2022-10-02T13:20:03.040Z,51.70
2022-10-02T13:22:52.752Z,52.50
2022-10-02T13:25:34.328Z,51.70
2022-10-02T13:28:28.264Z,51.70
2022-10-02T13:31:13.002Z,51.70
2022-10-02T13:34:06.857Z,51.60
2022-10-02T13:36:51.705Z,51.60
2022-10-02T13:39:38.396Z,51.60
2022-10-02T13:42:28.957Z,51.60
2022-10-02T13:45:23.779Z,51.60
2022-10-02T13:48:18.525Z,51.60
2022-10-02T13:50:55.446Z,51.60
2022-10-02T13:53:56.773Z,51.70
2022-10-02T13:56:32.292Z,51.70
2022-10-02T13:59:12.960Z,51.60
2022-10-02T14:02:09.153Z,51.70
2022-10-02T14:04:50.695Z,52.00
2022-10-02T14:07:20.421Z,52.10
2022-10-02T14:09:54.569Z,52.20
2022-10-02T14:12:39.241Z,52.30
2022-10-02T14:15:25.062Z,52.40
2022-10-02T14:18:06.543Z,52.40
2022-10-02T14:20:54.741Z,52.50
2022-10-02T14:23:49.778Z,52.50
2022-10-02T14:26:36.106Z,52.50
2022-10-02T14:29:27.565Z,52.50
2022-10-02T14:32:00.642Z,52.60
2022-10-02T14:34:53.058Z,52.60
2022-10-02T14:37:37.545Z,52.80
2022-10-02T14:40:25.202Z,52.80
2022-10-02T14:43:15.846Z,52.90
2022-10-02T14:46:05.057Z,53.10
2022-10-02T14:48:50.550Z,53.10
2022-10-02T14:51:51.768Z,53.00
2022-10-02T14:54:46.298Z,53.10
2022-10-02T14:57:28.204Z,53.30
2022-10-02T15:00:24.718Z,53.40
2022-10-02T15:03:30.409Z,53.50
2022-10-02T15:06:14.837Z,53.60
2022-10-02T15:09:17.980Z,53.60
2022-10-02T15:12:08.130Z,53.60
2022-10-02T15:15:13.405Z,53.50
2022-10-02T15:17:56.599Z,53.50
2022-10-02T15:20:59.236Z,53.50
2022-10-02T15:23:31.841Z,53.50
2022-10-02T15:26:07.348Z,53.50
2022-10-02T15:28:37.151Z,53.50
2022-10-02T15:31:37.763Z,53.50
2022-10-02T15:34:30.080Z,53.50
2022-10-02T15:37:18.602Z,53.60
2022-10-02T15:40:08.960Z,53.50
2022-10-02T15:42:58.026Z,53.50
2022-10-02T15:45:46.306Z,53.50
2022-10-02T15:48:31.113Z,53.60
2022-10-02T15:51:19.491Z,53.60
2022-10-02T15:53:52.215Z,53.60
2022-10-02T15:56:24.877Z,53.50
2022-10-02T15:59:03.799Z,53.50
2022-10-02T16:01:43.815Z,53.50
2022-10-02T16:04:19.487Z,53.50
2022-10-02T16:07:33.042Z,53.50
2022-10-02T16:10:16.338Z,53.50
2022-10-02T16:13:00.565Z,53.50
2022-10-02T16:15:43.892Z,53.50
2022-10-02T16:18:35.725Z,53.50
2022-10-02T16:21:26.962Z,53.50
2022-10-02T16:24:07.560Z,53.50
2022-10-02T16:26:55.788Z,53.40
2022-10-02T16:29:49.129Z,53.40
2022-10-02T16:32:22.295Z,53.40
2022-10-02T16:35:11.151Z,53.30
2022-10-02T16:37:46.539Z,53.20
2022-10-02T16:40:33.903Z,53.10
2022-10-02T16:43:19.465Z,52.80
2022-10-02T16:46:09.310Z,52.50
2022-10-02T16:48:58.994Z,52.40
2022-10-02T16:51:45.663Z,52.20
2022-10-02T16:54:44.169Z,52.20
2022-10-02T16:57:26.273Z,52.10
2022-10-02T17:00:14.116Z,52.10
2022-10-02T17:03:04.101Z,52.10
2022-10-02T17:05:54.015Z,52.10
2022-10-02T17:08:57.831Z,52.20
2022-10-02T17:11:38.142Z,52.20
2022-10-02T17:14:18.257Z,53.00
2022-10-02T17:17:20.717Z,52.30
2022-10-02T17:19:55.513Z,52.30
2022-10-02T17:22:48.528Z,52.30
2022-10-02T17:25:15.378Z,52.40
2022-10-02T17:27:54.155Z,52.40
2022-10-02T17:30:24.355Z,53.20
2022-10-02T17:33:11.611Z,52.50
2022-10-02T17:35:43.393Z,52.40
2022-10-02T17:38:24.200Z,52.40
2022-10-02T17:41:06.279Z,52.50
2022-10-02T17:43:40.391Z,52.40
2022-10-02T17:46:24.093Z,52.50
2022-10-02T17:49:11.695Z,52.50
2022-10-02T17:52:31.498Z,52.50
2022-10-02T17:55:37.730Z,52.50
2022-10-02T17:58:21.664Z,52.60
2022-10-02T18:01:22.974Z,52.50
2022-10-02T18:04:02.272Z,52.60
2022-10-02T18:06:59.976Z,52.50
2022-10-02T18:10:00.768Z,52.50
2022-10-02T18:12:51.740Z,52.40
2022-10-02T18:15:24.422Z,52.30
2022-10-02T18:18:08.256Z,52.30
2022-10-02T18:20:57.335Z,53.00
2022-10-02T18:24:01.714Z,52.90
2022-10-02T18:26:42.122Z,52.20
2022-10-02T18:29:23.995Z,52.20
2022-10-02T18:32:34.697Z,52.20
2022-10-02T18:35:09.262Z,52.20
2022-10-02T18:38:12.819Z,52.20
2022-10-02T18:40:53.213Z,52.20
2022-10-02T18:43:47.611Z,52.20
2022-10-02T18:46:37.362Z,52.30
2022-10-02T18:49:17.132Z,52.20
2022-10-02T18:51:52.631Z,52.20
2022-10-02T18:54:34.483Z,52.20
2022-10-02T18:57:07.672Z,52.30
2022-10-02T18:59:40.364Z,52.20
2022-10-02T19:02:13.358Z,52.20
2022-10-02T19:04:58.741Z,52.10
2022-10-02T19:07:39.838Z,52.10
2022-10-02T19:10:31.388Z,52.70
2022-10-02T19:13:17.533Z,52.00
2022-10-02T19:15:48.474Z,51.90
2022-10-02T19:18:25.483Z,51.90
2022-10-02T19:21:01.551Z,51.80
2022-10-02T19:23:39.810Z,51.80
2022-10-02T19:26:16.865Z,51.80
2022-10-02T19:28:51.416Z,51.70
2022-10-02T19:31:26.979Z,51.70
2022-10-02T19:34:03.445Z,51.70
2022-10-02T19:36:50.176Z,51.60
2022-10-02T19:39:33.341Z,51.60
2022-10-02T19:42:06.969Z,51.60
2022-10-02T19:44:41.676Z,51.50
2022-10-02T19:47:31.773Z,51.50
2022-10-02T19:50:01.030Z,51.40
2022-10-02T19:52:36.962Z,51.40
2022-10-02T19:55:24.057Z,51.40
2022-10-02T19:57:57.651Z,51.30
2022-10-02T20:00:24.800Z,51.40
2022-10-02T20:02:55.999Z,51.40
2022-10-02T20:05:29.357Z,51.40
2022-10-02T20:08:06.929Z,51.50
2022-10-02T20:10:40.084Z,51.60
2022-10-02T20:13:07.332Z,51.60
2022-10-02T20:16:03.110Z,51.70
2022-10-02T20:18:30.870Z,51.80
2022-10-02T20:21:17.880Z,51.80
2022-10-02T20:23:52.005Z,51.90
2022-10-02T20:26:26.021Z,51.90
2022-10-02T20:29:01.797Z,52.00
2022-10-02T20:31:59.468Z,52.00
2022-10-02T20:34:57.688Z,52.00
2022-10-02T20:37:29.449Z,52.00
2022-10-02T20:40:03.314Z,52.00
2022-10-02T20:42:40.697Z,52.00
2022-10-02T20:45:13.277Z,52.00
2022-10-02T20:47:51.093Z,52.00
2022-10-02T20:50:23.814Z,52.00
2022-10-02T20:53:09.049Z,52.00
2022-10-02T20:55:42.592Z,52.00
2022-10-02T20:58:23.910Z,52.00
2022-10-02T21:01:20.648Z,52.00
2022-10-02T21:04:16.536Z,52.10
2022-10-02T21:06:49.208Z,52.10
2022-10-02T21:09:31.333Z,52.10
2022-10-02T21:12:50.573Z,52.20
2022-10-02T21:15:44.851Z,52.20
2022-10-02T21:18:26.440Z,52.20
2022-10-02T21:20:58.718Z,52.20
2022-10-02T21:23:45.066Z,52.20
2022-10-02T21:26:36.058Z,52.20
2022-10-02T21:29:30.658Z,52.20
2022-10-02T21:32:24.685Z,52.10
2022-10-02T21:35:10.250Z,52.10
2022-10-02T21:38:19.026Z,52.00
2022-10-02T21:40:58.119Z,51.90
2022-10-02T21:44:18.029Z,51.90
2022-10-02T21:47:03.284Z,51.80
2022-10-02T21:50:00.028Z,51.70
2022-10-02T21:52:58.352Z,51.60
2022-10-02T21:55:31.201Z,51.50
2022-10-02T21:58:16.466Z,51.50
2022-10-02T22:01:30.742Z,51.50
2022-10-02T22:04:18.804Z,51.50
2022-10-02T22:06:54.811Z,51.50
2022-10-02T22:09:34.305Z,51.50
2022-10-02T22:12:19.130Z,51.50
2022-10-02T22:15:08.678Z,51.40
2022-10-02T22:17:53.451Z,51.40
2022-10-02T22:20:26.079Z,51.30
2022-10-02T22:23:15.333Z,51.30
2022-10-02T22:26:12.525Z,51.20
2022-10-02T22:29:02.105Z,51.20
2022-10-02T22:32:27.271Z,51.20
2022-10-02T22:35:07.122Z,51.20
2022-10-02T22:37:49.355Z,51.20
2022-10-02T22:40:23.240Z,51.20
2022-10-02T22:43:04.193Z,51.20
2022-10-02T22:45:44.386Z,51.20
2022-10-02T22:48:27.697Z,51.20
2022-10-02T22:51:00.861Z,51.10
2022-10-02T22:53:38.391Z,51.10
2022-10-02T22:56:35.914Z,51.00
2022-10-02T22:59:24.154Z,51.00
2022-10-02T23:02:10.712Z,51.60
2022-10-02T23:04:43.629Z,50.80
2022-10-02T23:07:14.581Z,50.80
2022-10-02T23:09:48.272Z,50.80
2022-10-02T23:12:45.764Z,50.80
2022-10-02T23:15:49.481Z,50.70
2022-10-02T23:18:42.891Z,50.70
2022-10-02T23:21:33.828Z,50.60
2022-10-02T23:24:12.750Z,50.60
2022-10-02T23:27:02.585Z,50.50
2022-10-02T23:29:35.773Z,50.50
2022-10-02T23:32:26.844Z,50.40
2022-10-02T23:34:59.454Z,50.40
2022-10-02T23:37:51.304Z,50.30
2022-10-02T23:41:09.920Z,50.20
2022-10-02T23:43:54.366Z,50.20
2022-10-02T23:46:29.688Z,50.10
2022-10-02T23:48:56.716Z,50.00
2022-10-02T23:51:49.624Z,49.90
2022-10-02T23:54:19.072Z,49.90
2022-10-02T23:57:06.873Z,49.90
2022-10-02T23:59:58.551Z,49.80
